Time;durP1;ratioP1;P1;durP2;ratioP2;P2;SDS_P1;SDS_P2;PMS_P1;PMS_P2;Temp;Humidity;BMP_temperature;BMP_pressure;BME280_temperature;BME280_humidity;BME280_pressure;Samples;Min_cycle;Max_cycle;Signal;HPM_P1;HPM_P2
2023/01/22 00:00:59;;;;;;;53.10;21.10;;;;;;;-1.27;100.00;102959.09;4803083;29;20109;-80
2023/01/22 00:03:25;;;;;;;52.55;20.88;;;;;;;-1.22;100.00;102960.00;4797416;29;20078;-81
2023/01/22 00:05:51;;;;;;;51.97;21.13;;;;;;;-1.25;100.00;102959.09;4813444;29;20050;-81
2023/01/22 00:08:19;;;;;;;53.47;21.17;;;;;;;-1.30;100.00;102949.25;4809215;29;20116;-80
2023/01/22 00:10:50;;;;;;;48.88;19.95;;;;;;;-1.20;100.00;102954.63;4797930;29;20091;-79
2023/01/22 00:13:15;;;;;;;49.88;20.83;;;;;;;-1.19;100.00;102951.06;4813922;29;20042;-80
2023/01/22 00:15:41;;;;;;;49.03;19.38;;;;;;;-1.23;100.00;102960.91;4815458;29;20110;-80
2023/01/22 00:18:06;;;;;;;61.05;21.92;;;;;;;-1.37;100.00;102939.34;4792725;29;20073;-80
2023/01/22 00:20:32;;;;;;;58.00;21.33;;;;;;;-1.33;100.00;102940.25;4786009;29;20165;-80
2023/01/22 00:22:57;;;;;;;60.97;22.02;;;;;;;-1.42;100.00;102930.38;4792212;29;20529;-81
2023/01/22 00:25:23;;;;;;;54.35;20.50;;;;;;;-1.36;100.00;102948.28;4813702;29;20062;-80
2023/01/22 00:27:48;;;;;;;58.53;23.08;;;;;;;-1.37;100.00;102954.56;4791764;29;20038;-80
2023/01/22 00:30:14;;;;;;;58.15;21.45;;;;;;;-1.44;100.00;102953.66;4783377;29;20030;-80
2023/01/22 00:32:40;;;;;;;57.92;23.05;;;;;;;-1.55;100.00;102936.59;4796982;29;20051;-80
2023/01/22 00:35:06;;;;;;;52.15;20.85;;;;;;;-1.43;100.00;102958.13;4802570;29;20100;-80
2023/01/22 00:37:32;;;;;;;58.38;21.42;;;;;;;-1.47;100.00;102953.63;4785221;29;20042;-79
2023/01/22 00:39:57;;;;;;;48.45;20.25;;;;;;;-1.46;100.00;102959.91;4805396;29;20039;-80
2023/01/22 00:42:23;;;;;;;60.60;23.08;;;;;;;-1.56;100.00;102956.25;4797746;29;20085;-80
2023/01/22 00:44:48;;;;;;;49.90;21.13;;;;;;;-1.49;100.00;102956.31;4790459;29;20125;-80
2023/01/22 00:47:13;;;;;;;56.45;22.08;;;;;;;-1.57;100.00;102946.44;4805671;29;20098;-80
2023/01/22 00:49:39;;;;;;;56.33;23.58;;;;;;;-1.57;100.00;102960.75;4806039;29;20110;-80
2023/01/22 00:52:04;;;;;;;52.55;22.30;;;;;;;-1.59;100.00;102950.88;4801020;29;20060;-80
2023/01/22 00:54:30;;;;;;;50.03;20.55;;;;;;;-1.64;100.00;102950.88;4816581;29;20063;-80
2023/01/22 00:56:55;;;;;;;48.38;20.25;;;;;;;-1.63;100.00;102941.91;4815481;29;20118;-80
2023/01/22 00:59:21;;;;;;;48.25;20.98;;;;;;;-1.64;100.00;102941.88;4789847;29;20057;-80
2023/01/22 01:01:46;;;;;;;53.70;21.10;;;;;;;-1.65;100.00;102935.63;4806340;29;20043;-80
2023/01/22 01:04:13;;;;;;;48.10;20.30;;;;;;;-1.65;100.00;102929.38;4782624;29;20042;-81
2023/01/22 01:06:39;;;;;;;35.22;15.82;;;;;;;-1.67;100.00;102924.00;4803763;29;20042;-80
2023/01/22 01:09:04;;;;;;;56.53;23.23;;;;;;;-1.71;100.00;102925.72;4768953;29;20384;-80
2023/01/22 01:11:30;;;;;;;43.28;18.92;;;;;;;-1.71;100.00;102920.38;4790514;29;20054;-80
2023/01/22 01:13:55;;;;;;;51.75;21.55;;;;;;;-1.61;100.00;102936.53;4795071;29;20041;-81
2023/01/22 01:16:25;;;;;;;50.38;21.95;;;;;;;-1.58;100.00;102937.44;4814300;29;20106;-80
2023/01/22 01:18:51;;;;;;;47.92;19.85;;;;;;;-1.59;100.00;102926.69;4802999;29;20576;-81
2023/01/22 01:21:18;;;;;;;50.63;21.48;;;;;;;-1.50;100.00;102934.81;4795243;29;20027;-82
2023/01/22 01:23:44;;;;;;;50.42;23.08;;;;;;;-1.50;100.00;102921.38;4788183;29;20059;-81
2023/01/22 01:26:12;;;;;;;43.08;20.65;;;;;;;-1.41;100.00;102926.81;4792105;29;20066;-81
2023/01/22 01:28:40;;;;;;;40.55;18.67;;;;;;;-1.41;100.00;102923.19;4814021;29;20034;-81
2023/01/22 01:31:08;;;;;;;59.63;22.95;;;;;;;-1.36;100.00;102916.03;4819440;29;20425;-81
2023/01/22 01:33:34;;;;;;;49.13;21.58;;;;;;;-1.32;100.00;102929.50;4811100;29;20127;-82
2023/01/22 01:36:02;;;;;;;52.45;21.30;;;;;;;-1.28;100.00;102927.72;4814781;29;20042;-81
2023/01/22 01:38:28;;;;;;;50.72;21.52;;;;;;;-1.30;100.00;102925.06;4804857;29;20061;-81
2023/01/22 01:40:54;;;;;;;47.50;21.10;;;;;;;-1.28;100.00;102924.16;4818806;29;20038;-81
2023/01/22 01:43:19;;;;;;;48.15;20.65;;;;;;;-1.23;100.00;102923.28;4818251;29;20064;-81
2023/01/22 01:45:44;;;;;;;50.83;22.73;;;;;;;-1.24;100.00;102917.91;4802659;29;20498;-81
2023/01/22 01:48:28;;;;;;;46.88;21.70;;;;;;;-1.11;100.00;102917.94;4798864;29;20121;-81
2023/01/22 01:51:10;;;;;;;44.75;20.40;;;;;;;-1.08;100.00;102911.69;4808793;29;20122;-81
2023/01/22 01:53:36;;;;;;;44.92;21.13;;;;;;;-1.07;100.00;102905.41;4811671;29;20034;-81
2023/01/22 01:56:06;;;;;;;54.03;21.70;;;;;;;-0.93;100.00;102910.81;4789254;29;20035;-81
2023/01/22 01:58:33;;;;;;;43.15;19.38;;;;;;;-0.97;100.00;102891.09;4799726;29;20039;-82
2023/01/22 02:01:10;;;;;;;41.60;18.02;;;;;;;-0.76;100.00;102910.84;4785302;29;20072;-82
2023/01/22 02:03:36;;;;;;;44.42;20.42;;;;;;;-0.77;100.00;102903.66;4810513;29;20064;-81
2023/01/22 02:06:01;;;;;;;42.42;20.30;;;;;;;-0.84;100.00;102913.50;4798125;29;20043;-81
2023/01/22 02:08:27;;;;;;;40.20;19.60;;;;;;;-0.72;100.00;102920.72;4815165;29;20054;-80
2023/01/22 02:10:53;;;;;;;47.92;22.50;;;;;;;-0.74;100.00;102914.44;4806170;29;20061;-81
2023/01/22 02:13:27;;;;;;;43.28;18.30;;;;;;;-0.89;100.00;102899.16;4811864;29;20038;-81
2023/01/22 02:15:53;;;;;;;58.08;21.25;;;;;;;-0.86;100.00;102887.53;4788933;29;20041;-81
2023/01/22 02:18:18;;;;;;;48.45;21.38;;;;;;;-0.83;100.00;102892.91;4783316;29;20039;-81
2023/01/22 02:20:55;;;;;;;42.78;18.80;;;;;;;-0.84;100.00;102885.72;4798523;29;20359;-81
2023/01/22 02:23:21;;;;;;;44.50;19.83;;;;;;;-0.80;100.00;102883.06;4818170;29;20476;-81
2023/01/22 02:25:46;;;;;;;43.45;20.92;;;;;;;-0.91;100.00;102878.56;4799719;29;20096;-80
2023/01/22 02:28:12;;;;;;;31.98;13.13;;;;;;;-0.81;100.00;102889.31;4803879;29;20137;-81
2023/01/22 02:30:37;;;;;;;44.58;20.00;;;;;;;-0.79;100.00;102890.25;4799530;29;20049;-82
2023/01/22 02:33:02;;;;;;;47.72;20.27;;;;;;;-0.85;100.00;102883.94;4816807;29;20047;-81
2023/01/22 02:35:28;;;;;;;40.95;19.08;;;;;;;-0.92;100.00;102885.72;4778729;29;20424;-81
2023/01/22 02:37:53;;;;;;;47.63;20.90;;;;;;;-0.94;100.00;102892.88;4796122;29;20042;-82
2023/01/22 02:40:19;;;;;;;45.90;20.75;;;;;;;-1.02;100.00;102878.53;4799900;29;20038;-81
2023/01/22 02:42:44;;;;;;;46.85;19.77;;;;;;;-0.95;100.00;102889.31;4816781;29;20042;-82
2023/01/22 02:45:10;;;;;;;39.28;18.88;;;;;;;-1.02;100.00;102889.28;4798019;29;20065;-82
2023/01/22 02:47:35;;;;;;;42.03;19.60;;;;;;;-1.02;100.00;102894.66;4819847;29;20038;-81
2023/01/22 02:50:02;;;;;;;50.53;20.95;;;;;;;-1.11;100.00;102883.00;4804979;29;20066;-82
2023/01/22 02:52:27;;;;;;;45.97;18.60;;;;;;;-1.14;100.00;102882.09;4809396;29;20066;-81
2023/01/22 02:54:52;;;;;;;30.98;14.38;;;;;;;-1.04;100.00;102894.66;4776446;29;20070;-81
2023/01/22 02:57:18;;;;;;;40.83;19.33;;;;;;;-1.11;100.00;102891.06;4795613;29;20039;-82
2023/01/22 02:59:43;;;;;;;41.88;18.23;;;;;;;-1.03;100.00;102887.47;4782634;29;20039;-81
2023/01/22 03:02:09;;;;;;;44.05;19.33;;;;;;;-0.98;100.00;102889.31;4772571;29;20127;-82
2023/01/22 03:04:34;;;;;;;44.05;19.13;;;;;;;-1.05;100.00;102874.06;4793620;29;20066;-81
2023/01/22 03:06:59;;;;;;;40.50;17.95;;;;;;;-1.05;100.00;102881.22;4809502;29;20046;-81
2023/01/22 03:09:25;;;;;;;42.40;19.25;;;;;;;-0.96;100.00;102892.88;4788644;29;20046;-81
2023/01/22 03:11:50;;;;;;;42.50;19.73;;;;;;;-0.90;100.00;102885.72;4818275;29;20507;-82
2023/01/22 03:22:29;;;;;;;48.63;20.70;;;;;;;-0.91;100.00;102882.16;4816920;29;20035;-81
2023/01/22 03:24:57;;;;;;;43.28;20.35;;;;;;;-0.90;100.00;102874.97;4797242;29;20410;-81
2023/01/22 03:27:25;;;;;;;46.38;20.95;;;;;;;-0.94;100.00;102882.13;4801081;29;20411;-81
2023/01/22 03:29:50;;;;;;;43.45;18.95;;;;;;;-0.86;100.00;102879.47;4794054;29;20035;-81
2023/01/22 03:32:17;;;;;;;46.13;20.13;;;;;;;-0.96;100.00;102871.38;4802829;29;20041;-81
2023/01/22 03:34:42;;;;;;;42.70;18.65;;;;;;;-0.99;100.00;102879.44;4800218;29;20038;-81
2023/01/22 03:37:11;;;;;;;45.03;19.85;;;;;;;-1.02;100.00;102859.72;4810397;29;20046;-81
2023/01/22 03:39:38;;;;;;;38.83;18.63;;;;;;;-1.02;100.00;102868.66;4795831;29;20129;-81
2023/01/22 03:42:04;;;;;;;42.75;19.30;;;;;;;-1.03;100.00;102864.22;4781522;29;20043;-82
2023/01/22 03:44:29;;;;;;;42.35;19.23;;;;;;;-1.08;100.00;102855.25;4785172;29;20053;-81
2023/01/22 03:46:55;;;;;;;46.03;20.02;;;;;;;-1.07;100.00;102857.00;4796685;29;20054;-82
2023/01/22 03:49:20;;;;;;;41.92;19.83;;;;;;;-0.99;100.00;102857.03;4812238;29;20126;-81
2023/01/22 03:51:46;;;;;;;39.58;18.50;;;;;;;-1.00;100.00;102849.84;4783428;29;20092;-82
2023/01/22 03:54:13;;;;;;;42.95;17.95;;;;;;;-1.03;100.00;102861.53;4812641;29;22086;-81
2023/01/22 03:56:39;;;;;;;47.17;20.50;;;;;;;-0.99;100.00;102854.34;4818493;29;20122;-81
2023/01/22 03:59:04;;;;;;;39.47;18.05;;;;;;;-0.92;100.00;102853.44;4791547;29;20191;-81
2023/01/22 04:01:30;;;;;;;42.05;19.50;;;;;;;-0.92;100.00;102856.13;4782182;29;20037;-82
2023/01/22 04:03:56;;;;;;;45.60;18.42;;;;;;;-0.99;100.00;102848.97;4816779;29;20499;-81
2023/01/22 04:06:22;;;;;;;36.47;18.27;;;;;;;-1.02;100.00;102846.28;4815550;29;20127;-82
2023/01/22 04:08:50;;;;;;;40.35;19.48;;;;;;;-0.99;100.00;102851.66;4821945;29;20113;-81
2023/01/22 04:11:16;;;;;;;31.52;15.52;;;;;;;-0.99;100.00;102847.16;4819310;29;20506;-82
2023/01/22 04:13:42;;;;;;;37.13;18.25;;;;;;;-0.99;100.00;102848.97;4818194;29;20034;-81
2023/01/22 04:16:09;;;;;;;39.22;18.88;;;;;;;-1.02;100.00;102847.16;4812474;29;20119;-81
2023/01/22 04:18:35;;;;;;;39.55;17.40;;;;;;;-0.90;100.00;102853.44;4797680;29;20127;-81
2023/01/22 04:21:01;;;;;;;35.47;18.15;;;;;;;-0.97;100.00;102852.56;4794875;29;20088;-82
2023/01/22 04:23:26;;;;;;;35.15;15.98;;;;;;;-0.99;100.00;102848.97;4795517;29;20043;-81
2023/01/22 04:25:52;;;;;;;34.08;15.45;;;;;;;-0.94;100.00;102844.50;4784402;29;20047;-81
2023/01/22 04:28:18;;;;;;;33.03;14.93;;;;;;;-0.82;100.00;102852.59;4792879;29;20057;-81
2023/01/22 04:30:46;;;;;;;42.33;18.25;;;;;;;-0.91;100.00;102846.31;4799413;29;20039;-81
2023/01/22 04:33:12;;;;;;;36.20;17.48;;;;;;;-0.85;100.00;102854.34;4798348;29;20038;-81
2023/01/22 04:35:38;;;;;;;33.15;14.77;;;;;;;-0.92;100.00;102842.69;4793967;29;20046;-81
2023/01/22 04:38:05;;;;;;;36.85;16.83;;;;;;;-0.94;100.00;102842.69;4811553;29;20034;-81
2023/01/22 04:40:31;;;;;;;41.70;17.70;;;;;;;-0.95;100.00;102838.22;4806301;29;20037;-82
2023/01/22 04:43:01;;;;;;;33.35;13.52;;;;;;;-0.73;100.00;102840.94;4792533;29;20387;-81
2023/01/22 04:45:27;;;;;;;37.13;16.25;;;;;;;-0.95;100.00;102831.97;4804165;29;20068;-81
2023/01/22 04:47:52;;;;;;;28.20;14.18;;;;;;;-0.85;100.00;102835.53;4794999;29;20453;-82
2023/01/22 04:50:20;;;;;;;36.85;15.38;;;;;;;-0.87;100.00;102840.00;4794671;29;20089;-81
2023/01/22 04:52:48;;;;;;;32.80;18.45;;;;;;;-0.94;100.00;102826.56;4816824;29;20046;-81
2023/01/22 04:55:14;;;;;;;34.15;16.00;;;;;;;-0.84;100.00;102842.72;4818112;29;20038;-81
2023/01/22 04:57:39;;;;;;;40.92;17.63;;;;;;;-0.87;100.00;102834.63;4776848;29;20042;-81
2023/01/22 05:00:06;;;;;;;38.35;17.15;;;;;;;-0.77;100.00;102844.50;4816235;29;20039;-81
2023/01/22 05:02:31;;;;;;;32.97;14.70;;;;;;;-0.89;100.00;102833.75;4811203;29;20035;-81
2023/01/22 05:04:57;;;;;;;41.50;17.38;;;;;;;-0.77;100.00;102837.34;4811990;29;20031;-81
2023/01/22 05:07:22;;;;;;;34.78;17.48;;;;;;;-0.72;100.00;102834.66;4815217;29;20058;-81
2023/01/22 05:09:48;;;;;;;33.42;14.10;;;;;;;-0.79;100.00;102809.56;4814480;29;20035;-81
2023/01/22 05:12:13;;;;;;;36.05;16.42;;;;;;;-0.69;100.00;102837.31;4769540;29;20049;-82
2023/01/22 05:14:39;;;;;;;38.20;16.85;;;;;;;-0.62;100.00;102840.94;4791485;29;20042;-81
2023/01/22 05:17:05;;;;;;;33.25;15.60;;;;;;;-0.72;100.00;102837.34;4789139;29;20039;-81
2023/01/22 05:19:30;;;;;;;37.63;17.02;;;;;;;-0.60;100.00;102848.09;4798096;29;20031;-82
2023/01/22 05:21:56;;;;;;;42.83;17.33;;;;;;;-0.62;100.00;102846.31;4787504;29;20467;-81
2023/01/22 05:24:21;;;;;;;29.80;15.02;;;;;;;-0.53;100.00;102850.78;4774471;29;20067;-81
2023/01/22 05:26:46;;;;;;;38.78;16.48;;;;;;;-0.60;100.00;102844.50;4779889;29;20046;-81
2023/01/22 05:29:12;;;;;;;25.92;13.23;;;;;;;-0.50;100.00;102858.88;4782386;29;20073;-80
2023/01/22 05:31:37;;;;;;;40.40;15.50;;;;;;;-0.58;100.00;102848.97;4812159;29;20034;-81
2023/01/22 05:34:03;;;;;;;36.38;16.10;;;;;;;-0.61;100.00;102848.09;4799947;29;20068;-79
2023/01/22 05:36:29;;;;;;;32.38;15.00;;;;;;;-0.55;100.00;102853.47;4813742;29;20039;-80
2023/01/22 05:38:54;;;;;;;29.38;13.75;;;;;;;-0.39;100.00;102859.75;4813212;29;20039;-80
2023/01/22 05:41:20;;;;;;;27.25;14.35;;;;;;;-0.62;100.00;102852.59;4779692;29;20127;-80
2023/01/22 05:43:45;;;;;;;30.80;14.95;;;;;;;-0.62;100.00;102849.88;4816952;29;20062;-80
2023/01/22 05:46:11;;;;;;;26.80;14.15;;;;;;;-0.63;100.00;102856.16;4798008;29;20441;-80
2023/01/22 05:48:36;;;;;;;29.00;13.32;;;;;;;-0.50;100.00;102861.56;4812380;29;20113;-80
2023/01/22 05:51:06;;;;;;;27.83;14.52;;;;;;;-0.52;100.00;102852.59;4810415;29;20041;-80
2023/01/22 05:53:35;;;;;;;29.33;13.77;;;;;;;-0.52;100.00;102847.22;4811413;29;20039;-80
2023/01/22 05:56:02;;;;;;;30.15;14.82;;;;;;;-0.61;100.00;102849.00;4775568;29;20046;-81
2023/01/22 05:58:29;;;;;;;28.15;14.32;;;;;;;-0.56;100.00;102860.66;4812797;29;20039;-81
2023/01/22 06:00:55;;;;;;;30.55;14.07;;;;;;;-0.62;100.00;102874.09;4802367;29;20120;-80
2023/01/22 06:03:21;;;;;;;27.73;15.05;;;;;;;-0.51;100.00;102867.81;4795101;29;20070;-80
2023/01/22 06:05:46;;;;;;;36.47;15.95;;;;;;;-0.51;100.00;102863.31;4810389;29;20070;-80
2023/01/22 06:08:12;;;;;;;32.05;13.82;;;;;;;-0.52;100.00;102860.66;4792126;29;20034;-80
2023/01/22 06:10:37;;;;;;;26.50;13.18;;;;;;;-0.56;100.00;102859.75;4800837;29;20076;-80
2023/01/22 06:13:03;;;;;;;29.85;15.25;;;;;;;-0.59;100.00;102862.44;4788262;29;20053;-81
2023/01/22 06:15:28;;;;;;;26.25;13.25;;;;;;;-0.56;100.00;102866.03;4813837;29;20050;-80
2023/01/22 06:17:59;;;;;;;29.95;13.88;;;;;;;-0.45;100.00;102873.19;4812927;29;20048;-80
2023/01/22 06:20:25;;;;;;;26.08;12.68;;;;;;;-0.45;100.00;102875.91;4817065;29;20039;-80
2023/01/22 06:22:50;;;;;;;27.30;14.55;;;;;;;-0.51;100.00;102867.81;4799234;29;20076;-81
2023/01/22 06:25:16;;;;;;;25.52;12.98;;;;;;;-0.39;100.00;102865.13;4788015;29;20078;-81
2023/01/22 06:27:41;;;;;;;25.17;12.27;;;;;;;-0.49;100.00;102868.69;4784725;29;20038;-81
2023/01/22 06:30:07;;;;;;;30.63;14.50;;;;;;;-0.44;100.00;102869.63;4799808;29;20038;-80
2023/01/22 06:32:33;;;;;;;28.35;12.35;;;;;;;-0.44;100.00;102872.31;4792198;29;20563;-81
2023/01/22 06:34:58;;;;;;;24.70;13.50;;;;;;;-0.43;100.00;102869.59;4816373;29;20118;-80
2023/01/22 06:37:24;;;;;;;21.42;10.60;;;;;;;-0.43;100.00;102872.28;4801258;29;20058;-81
2023/01/22 06:39:49;;;;;;;22.20;12.82;;;;;;;-0.55;100.00;102853.47;4790917;29;20092;-81
2023/01/22 06:42:14;;;;;;;23.17;12.35;;;;;;;-0.42;100.00;102865.13;4818108;29;20490;-81
2023/01/22 06:44:40;;;;;;;24.85;12.93;;;;;;;-0.44;100.00;102867.81;4795671;29;20058;-80
2023/01/22 06:47:05;;;;;;;26.27;12.70;;;;;;;-0.35;100.00;102874.09;4801809;29;20043;-80
2023/01/22 06:49:31;;;;;;;29.80;13.13;;;;;;;-0.47;100.00;102870.50;4816807;29;20419;-80
2023/01/22 06:51:56;;;;;;;21.83;12.57;;;;;;;-0.39;100.00;102873.22;4813908;29;20134;-80
2023/01/22 06:54:21;;;;;;;30.67;12.65;;;;;;;-0.36;100.00;102878.59;4809390;29;20034;-81
2023/01/22 06:56:47;;;;;;;19.17;10.68;;;;;;;-0.26;100.00;102887.56;4787779;29;20103;-80
2023/01/22 06:59:12;;;;;;;25.10;12.18;;;;;;;-0.41;100.00;102883.06;4800258;29;20043;-80
2023/01/22 07:01:38;;;;;;;21.45;10.75;;;;;;;-0.31;100.00;102879.47;4793999;29;20057;-80
2023/01/22 07:04:03;;;;;;;22.55;11.50;;;;;;;-0.38;100.00;102885.75;4778848;29;20046;-81
2023/01/22 07:06:29;;;;;;;27.98;12.52;;;;;;;-0.42;100.00;102883.97;4813121;29;20051;-81
2023/01/22 07:08:55;;;;;;;23.30;11.27;;;;;;;-0.31;100.00;102894.72;4796033;29;20460;-80
2023/01/22 07:11:21;;;;;;;19.63;10.30;;;;;;;-0.39;100.00;102886.66;4794413;29;20038;-80
2023/01/22 07:13:46;;;;;;;25.30;11.80;;;;;;;-0.44;100.00;102899.22;4794128;29;20038;-81
2023/01/22 07:16:12;;;;;;;19.52;11.93;;;;;;;-0.35;100.00;102885.75;4803373;29;20126;-81
2023/01/22 07:18:37;;;;;;;20.40;11.25;;;;;;;-0.36;100.00;102892.03;4797540;29;20415;-79
2023/01/22 07:21:04;;;;;;;22.45;12.70;;;;;;;-0.40;100.00;102895.63;4802559;29;20057;-80
2023/01/22 07:23:29;;;;;;;21.67;11.88;;;;;;;-0.38;100.00;102897.44;4816732;29;20034;-80
2023/01/22 07:25:55;;;;;;;23.45;12.30;;;;;;;-0.32;100.00;102904.59;4790032;29;20041;-81
2023/01/22 07:28:21;;;;;;;23.90;11.35;;;;;;;-0.33;100.00;102901.91;4812071;29;20038;-79
2023/01/22 07:30:46;;;;;;;27.13;12.07;;;;;;;-0.31;100.00;102890.25;4797082;29;20504;-80
2023/01/22 07:33:12;;;;;;;21.92;12.88;;;;;;;-0.24;100.00;102905.47;4790085;29;20506;-81
2023/01/22 07:35:38;;;;;;;25.45;12.80;;;;;;;-0.29;100.00;102898.31;4814701;29;20494;-81
2023/01/22 07:38:05;;;;;;;28.70;13.43;;;;;;;-0.17;100.00;102894.72;4798626;29;20081;-81
2023/01/22 07:40:30;;;;;;;25.90;13.93;;;;;;;-0.27;100.00;102886.63;4783417;29;20037;-80
2023/01/22 07:42:56;;;;;;;30.40;13.10;;;;;;;-0.23;100.00;102898.28;4779731;29;20043;-79
2023/01/22 07:45:23;;;;;;;28.85;14.18;;;;;;;-0.22;100.00;102905.47;4788408;29;20095;-80
2023/01/22 07:47:53;;;;;;;29.38;14.65;;;;;;;-0.19;100.00;102908.16;4810405;29;20049;-80
2023/01/22 07:50:20;;;;;;;23.55;13.02;;;;;;;-0.21;100.00;102904.59;4775960;29;20035;-81
2023/01/22 07:52:47;;;;;;;25.05;12.75;;;;;;;-0.19;100.00;102905.47;4811588;29;20038;-80
2023/01/22 07:55:12;;;;;;;28.63;14.20;;;;;;;-0.16;100.00;102904.56;4781407;29;20502;-80
2023/01/22 07:57:38;;;;;;;25.58;14.73;;;;;;;-0.17;100.00;102905.47;4795539;29;20118;-79
2023/01/22 08:00:04;;;;;;;25.05;13.10;;;;;;;-0.29;100.00;102899.22;4766319;29;20042;-79
2023/01/22 08:02:29;;;;;;;23.30;13.40;;;;;;;-0.15;100.00;102906.38;4808909;29;20042;-80
2023/01/22 08:04:55;;;;;;;25.88;14.25;;;;;;;-0.25;100.00;102900.09;4806971;29;20550;-80
2023/01/22 08:07:22;;;;;;;28.70;14.90;;;;;;;-0.15;100.00;102907.25;4781762;29;20096;-79
2023/01/22 08:09:48;;;;;;;28.25;15.35;;;;;;;-0.10;100.00;102907.25;4811813;29;20047;-80
2023/01/22 08:12:13;;;;;;;27.98;14.55;;;;;;;-0.12;100.00;102914.44;4811618;29;20517;-79
2023/01/22 08:14:38;;;;;;;31.13;15.98;;;;;;;-0.11;100.00;102910.88;4795589;29;20046;-79
2023/01/22 08:17:04;;;;;;;26.58;13.70;;;;;;;-0.10;100.00;102931.47;4783500;29;20046;-79
2023/01/22 08:19:29;;;;;;;28.80;15.70;;;;;;;-0.15;100.00;102935.97;4799379;29;20514;-80
2023/01/22 08:21:55;;;;;;;27.40;15.15;;;;;;;-0.05;100.00;102926.97;4801302;29;20098;-80
2023/01/22 08:24:21;;;;;;;28.88;14.15;;;;;;;-0.11;100.00;102927.91;4811715;29;20043;-80
2023/01/22 08:26:47;;;;;;;27.02;13.73;;;;;;;-0.06;100.00;102931.47;4808252;29;20050;-79
2023/01/22 08:29:13;;;;;;;27.67;14.30;;;;;;;0.03;100.00;102933.25;4794423;29;20122;-80
2023/01/22 08:31:40;;;;;;;27.13;13.88;;;;;;;-0.01;100.00;102929.69;4774377;29;20047;-80
2023/01/22 08:34:05;;;;;;;23.02;13.20;;;;;;;0.02;100.00;102939.56;4772995;29;20410;-79
2023/01/22 08:36:31;;;;;;;24.23;12.93;;;;;;;0.01;100.00;102935.06;4818239;29;20030;-79
2023/01/22 08:38:56;;;;;;;20.90;12.35;;;;;;;-0.04;100.00;102926.97;4800351;29;20069;-80
2023/01/22 08:41:22;;;;;;;24.13;13.70;;;;;;;0.03;100.00;102926.97;4819586;29;20119;-80
2023/01/22 08:43:48;;;;;;;20.58;11.70;;;;;;;0.00;100.00;102933.28;4783987;29;20062;-78
2023/01/22 08:46:13;;;;;;;23.27;13.75;;;;;;;-0.05;100.00;102935.97;4796476;29;20046;-79
2023/01/22 08:48:42;;;;;;;21.55;12.30;;;;;;;-0.07;100.00;102934.19;4795821;29;20046;-79
2023/01/22 08:51:08;;;;;;;23.73;12.48;;;;;;;0.15;100.00;102930.56;4811203;29;20605;-79
2023/01/22 08:53:33;;;;;;;21.40;13.30;;;;;;;0.15;100.00;102937.75;4779058;29;20121;-79
2023/01/22 08:55:59;;;;;;;25.65;14.07;;;;;;;0.05;100.00;102939.56;4794218;29;20522;-80
2023/01/22 08:58:26;;;;;;;24.83;13.73;;;;;;;0.03;100.00;102938.63;4791316;29;20046;-79
2023/01/22 09:00:53;;;;;;;23.77;12.80;;;;;;;0.03;100.00;102935.94;4795287;29;20030;-79
2023/01/22 09:03:19;;;;;;;20.40;12.25;;;;;;;0.11;100.00;102935.94;4782916;29;20499;-78
2023/01/22 09:05:45;;;;;;;21.10;13.20;;;;;;;0.07;100.00;102926.97;4794780;29;20133;-77
2023/01/22 09:08:10;;;;;;;23.20;13.48;;;;;;;0.10;100.00;102940.44;4794820;29;20462;-78
2023/01/22 09:10:36;;;;;;;20.75;10.85;;;;;;;0.22;100.00;102941.31;4791221;29;20046;-78
2023/01/22 09:13:01;;;;;;;20.15;13.15;;;;;;;0.23;100.00;102943.09;4803044;29;20046;-80
2023/01/22 09:15:27;;;;;;;20.30;13.27;;;;;;;0.25;100.00;102933.25;4807460;29;20503;-79
2023/01/22 09:17:53;;;;;;;29.23;16.17;;;;;;;0.14;100.00;102917.97;4784466;29;20464;-79
2023/01/22 09:20:18;;;;;;;47.22;23.27;;;;;;;0.28;100.00;102936.81;4815707;29;20050;-77
2023/01/22 09:22:45;;;;;;;21.35;13.38;;;;;;;0.37;100.00;102933.19;4814077;29;20067;-79
2023/01/22 09:25:10;;;;;;;18.55;11.15;;;;;;;0.33;100.00;102948.47;4785775;29;20061;-77
2023/01/22 09:27:36;;;;;;;21.52;12.60;;;;;;;0.39;100.00;102938.56;4808431;29;20499;-76
2023/01/22 09:30:02;;;;;;;25.00;13.05;;;;;;;0.42;100.00;102933.19;4808145;29;20047;-76
2023/01/22 09:32:28;;;;;;;21.73;12.98;;;;;;;0.32;100.00;102922.41;4807452;29;20117;-78
2023/01/22 09:34:53;;;;;;;19.50;12.80;;;;;;;0.41;100.00;102931.38;4815226;29;20137;-78
2023/01/22 09:37:19;;;;;;;25.88;13.43;;;;;;;0.42;100.00;102928.69;4782344;29;20039;-78
2023/01/22 09:39:47;;;;;;;23.88;13.00;;;;;;;0.38;100.00;102929.59;4772398;29;20047;-78
2023/01/22 09:42:20;;;;;;;17.85;10.93;;;;;;;0.48;100.00;102931.38;4813515;29;20034;-76
2023/01/22 09:44:51;;;;;;;18.25;10.93;;;;;;;0.36;100.00;102934.09;4804968;29;20098;-75
2023/01/22 09:47:40;;;;;;;23.25;11.80;;;;;;;0.47;100.00;102942.16;4805633;29;20084;-76
2023/01/22 09:50:11;;;;;;;22.10;12.65;;;;;;;0.57;100.00;102946.59;4802985;29;20159;-78
2023/01/22 09:52:38;;;;;;;18.40;11.65;;;;;;;0.37;100.00;102938.59;4794275;29;20101;-79
2023/01/22 09:55:10;;;;;;;22.10;12.73;;;;;;;0.48;100.00;102934.06;4796044;29;20479;-77
2023/01/22 09:57:43;;;;;;;17.15;11.40;;;;;;;0.54;100.00;102947.53;4801017;29;20038;-77
2023/01/22 10:00:22;;;;;;;21.92;11.25;;;;;;;0.55;100.00;102945.72;4810059;29;20091;-77
2023/01/22 10:02:54;;;;;;;16.85;10.70;;;;;;;0.62;100.00;102933.09;4795406;29;20038;-77
2023/01/22 10:05:33;;;;;;;20.92;11.32;;;;;;;0.67;100.00;102952.84;4811147;29;20118;-77
2023/01/22 10:08:09;;;;;;;20.30;11.35;;;;;;;0.74;100.00;102951.94;4801437;29;20092;-77
2023/01/22 10:10:35;;;;;;;18.33;11.18;;;;;;;0.66;100.00;102961.88;4801332;29;20041;-77
2023/01/22 10:13:10;;;;;;;16.80;10.00;;;;;;;0.68;100.00;102962.75;4803206;29;20042;-78
2023/01/22 10:15:36;;;;;;;38.97;19.90;;;;;;;0.61;100.00;102944.78;4790740;29;20488;-77
2023/01/22 10:18:11;;;;;;;45.63;24.35;;;;;;;0.73;100.00;102955.53;4808842;29;20045;-77
2023/01/22 10:20:37;;;;;;;39.67;20.20;;;;;;;0.69;100.00;102960.03;4792334;29;20038;-77
2023/01/22 10:23:15;;;;;;;17.73;11.32;;;;;;;0.77;100.00;102965.41;4798122;29;20054;-77
2023/01/22 10:25:41;;;;;;;22.95;11.80;;;;;;;0.81;100.00;102972.56;4811901;29;20080;-78
2023/01/22 10:28:07;;;;;;;21.23;11.00;;;;;;;0.73;100.00;102971.72;4809035;29;20046;-78
2023/01/22 10:30:34;;;;;;;16.48;10.20;;;;;;;0.67;100.00;102967.25;4796230;29;20042;-79
2023/01/22 10:33:02;;;;;;;19.83;10.13;;;;;;;0.65;100.00;102952.84;4797412;29;20042;-78
2023/01/22 10:35:32;;;;;;;20.67;10.75;;;;;;;0.49;100.00;102948.41;4808833;29;20066;-78
2023/01/22 10:37:59;;;;;;;18.35;9.27;;;;;;;0.63;100.00;102959.16;4812795;29;20042;-77
2023/01/22 10:40:29;;;;;;;16.52;10.32;;;;;;;0.47;100.00;102956.50;4811979;29;20054;-78
2023/01/22 10:43:00;;;;;;;20.38;10.63;;;;;;;0.62;100.00;102938.50;4792162;29;20098;-79
2023/01/22 10:45:25;;;;;;;19.83;11.57;;;;;;;0.52;100.00;102948.41;4779728;29;20061;-77
2023/01/22 10:48:02;;;;;;;18.63;12.23;;;;;;;0.53;100.00;102943.03;4801988;29;20034;-79
2023/01/22 10:50:27;;;;;;;18.52;11.80;;;;;;;0.64;100.00;102939.38;4805211;29;20042;-78
2023/01/22 10:52:54;;;;;;;16.02;10.52;;;;;;;0.63;100.00;102948.38;4791520;29;20411;-78
2023/01/22 10:55:31;;;;;;;19.38;12.60;;;;;;;0.67;100.00;102955.53;4807739;29;20050;-78
2023/01/22 10:58:07;;;;;;;29.75;17.50;;;;;;;0.66;100.00;102949.28;4812128;29;20042;-79
2023/01/22 11:00:34;;;;;;;21.08;13.90;;;;;;;0.62;100.00;102941.19;4817088;29;20066;-78
2023/01/22 11:03:10;;;;;;;20.98;12.82;;;;;;;0.65;100.00;102947.47;4821329;29;20099;-78
2023/01/22 11:05:36;;;;;;;18.38;12.23;;;;;;;0.66;100.00;102943.00;4807826;29;20130;-78
2023/01/22 11:08:05;;;;;;;19.73;12.48;;;;;;;0.67;100.00;102939.38;4806380;29;20508;-78
2023/01/22 11:10:52;;;;;;;18.48;10.88;;;;;;;0.66;100.00;102933.09;4822892;29;20030;-78